createdAt,value
2019-04-29T00:00:35.289Z,101116.62
2019-04-29T00:03:04.137Z,101117.25
2019-04-29T00:05:32.824Z,101110.35
2019-04-29T00:08:01.444Z,101110.95
2019-04-29T00:10:30.914Z,101109.05
2019-04-29T00:12:59.614Z,101113.16
2019-04-29T00:15:42.382Z,101126.98
2019-04-29T00:18:17.654Z,101122.09
2019-04-29T00:20:48.538Z,101124.84
2019-04-29T00:23:17.154Z,101121.44
2019-04-29T00:25:45.879Z,101122.38
2019-04-29T00:28:14.481Z,101118.91
2019-04-29T00:30:43.172Z,101117.08
2019-04-29T00:33:11.791Z,101122.33
2019-04-29T00:35:40.595Z,101118.57
2019-04-29T00:38:23.343Z,101117.73
2019-04-29T00:41:10.996Z,101122.84
2019-04-29T00:43:52.714Z,101125.19
2019-04-29T00:46:21.355Z,101126.66
2019-04-29T00:48:50.045Z,101127.36
2019-04-29T00:51:18.758Z,101131.04
2019-04-29T00:53:49.207Z,101134.94
2019-04-29T00:56:17.825Z,101126.44
2019-04-29T00:58:46.442Z,101122.75
2019-04-29T01:01:19.312Z,101129.52
2019-04-29T01:03:47.920Z,101134.12
2019-04-29T01:06:16.613Z,101132.88
2019-04-29T01:08:45.212Z,101141.63
2019-04-29T01:11:13.933Z,101138.53
2019-04-29T01:13:42.685Z,101135.19
2019-04-29T01:16:11.395Z,101134.31
2019-04-29T01:18:40.033Z,101133.13
2019-04-29T01:21:08.741Z,101134.25
2019-04-29T01:23:37.441Z,101135.90
2019-04-29T01:26:19.482Z,101132.98
2019-04-29T01:28:51.712Z,101129.72
2019-04-29T01:31:25.352Z,101137.37
2019-04-29T01:33:57.921Z,101132.93
2019-04-29T01:36:34.371Z,101126.62
2019-04-29T01:39:05.899Z,101129.61
2019-04-29T01:41:46.406Z,101129.25
2019-04-29T01:44:15.549Z,101131.58
2019-04-29T01:46:44.175Z,101135.30
2019-04-29T01:49:12.837Z,101130.41
2019-04-29T01:51:41.474Z,101129.02
2019-04-29T01:54:10.217Z,101126.88
2019-04-29T01:56:38.853Z,101127.59
2019-04-29T01:59:07.558Z,101132.63
2019-04-29T02:01:36.253Z,101128.63
2019-04-29T02:04:05.128Z,101137.05
2019-04-29T02:06:33.755Z,101140.07
2019-04-29T02:09:04.041Z,101141.58
2019-04-29T02:11:32.657Z,101136.29
2019-04-29T02:14:01.267Z,101137.95
2019-04-29T02:16:29.914Z,101139.34
2019-04-29T02:18:58.592Z,101138.54
2019-04-29T02:21:27.492Z,101134.51
2019-04-29T02:24:17.074Z,101139.52
2019-04-29T02:26:45.704Z,101136.73
2019-04-29T02:29:14.394Z,101137.34
2019-04-29T02:31:43.780Z,101133.33
2019-04-29T02:34:12.678Z,101141.73
2019-04-29T02:36:41.400Z,101137.43
2019-04-29T02:39:20.758Z,101138.61
2019-04-29T02:42:11.366Z,101141.87
2019-04-29T02:44:40.105Z,101139.41
2019-04-29T02:47:08.851Z,101140.69
2019-04-29T02:49:37.528Z,101138.33
2019-04-29T02:52:06.290Z,101141.06
2019-04-29T02:54:34.983Z,101141.12
2019-04-29T02:57:09.290Z,101137.09
2019-04-29T02:59:41.952Z,101132.91
2019-04-29T03:02:30.171Z,101134.83
2019-04-29T03:05:39.765Z,101141.81
2019-04-29T03:08:06.345Z,101130.73
2019-04-29T03:10:34.969Z,101136.12
2019-04-29T03:13:03.690Z,101138.77
2019-04-29T03:15:34.610Z,101138.66
2019-04-29T03:18:04.019Z,101138.66
2019-04-29T03:20:50.933Z,101135.88
2019-04-29T03:23:21.088Z,101138.66
2019-04-29T03:25:49.789Z,101136.02
2019-04-29T03:28:18.470Z,101136.44
2019-04-29T03:30:47.187Z,101131.59
2019-04-29T03:33:15.916Z,101135.49
2019-04-29T03:35:44.660Z,101134.49
2019-04-29T03:38:13.397Z,101141.35
2019-04-29T03:40:42.042Z,101138.22
2019-04-29T03:43:10.738Z,101143.64
2019-04-29T03:45:39.354Z,101134.44
2019-04-29T03:48:07.977Z,101136.23
2019-04-29T03:50:36.604Z,101137.95
2019-04-29T03:53:05.312Z,101146.25
2019-04-29T03:55:39.901Z,101152.41
2019-04-29T03:58:04.451Z,101152.53
2019-04-29T04:00:33.167Z,101145.03
2019-04-29T04:03:08.467Z,101146.59
2019-04-29T04:05:47.863Z,101147.09
2019-04-29T04:09:04.809Z,101153.39
2019-04-29T04:11:18.287Z,101153.29
2019-04-29T04:13:46.926Z,101153.09
2019-04-29T04:16:26.052Z,101156.64
2019-04-29T04:19:05.401Z,101160.09
2019-04-29T04:21:34.100Z,101158.67
2019-04-29T04:24:02.777Z,101166.70
2019-04-29T04:26:31.371Z,101160.70
2019-04-29T04:29:00.092Z,101164.19
2019-04-29T04:31:28.708Z,101177.77
2019-04-29T04:33:57.387Z,101187.86
2019-04-29T04:36:26.082Z,101179.06
2019-04-29T04:38:54.850Z,101186.16
2019-04-29T04:41:23.455Z,101183.52
2019-04-29T04:43:52.159Z,101181.77
2019-04-29T04:46:20.894Z,101180.88
2019-04-29T04:48:49.634Z,101185.59
2019-04-29T04:51:18.381Z,101186.00
2019-04-29T04:53:47.004Z,101184.55
2019-04-29T04:56:15.816Z,101190.50
2019-04-29T04:58:44.448Z,101187.77
2019-04-29T05:01:13.102Z,101192.33
2019-04-29T05:03:41.900Z,101200.63
2019-04-29T05:06:10.517Z,101197.50
2019-04-29T05:08:39.148Z,101195.39
2019-04-29T05:11:07.786Z,101199.07
2019-04-29T05:13:36.383Z,101201.95
2019-04-29T05:16:05.041Z,101207.90
2019-04-29T05:18:33.642Z,101209.17
2019-04-29T05:21:02.257Z,101208.79
2019-04-29T05:23:30.883Z,101215.20
2019-04-29T05:25:59.517Z,101213.92
2019-04-29T05:28:28.200Z,101209.48
2019-04-29T05:30:56.824Z,101211.83
2019-04-29T05:33:25.444Z,101215.45
2019-04-29T05:36:03.804Z,101220.83
2019-04-29T05:38:37.000Z,101224.98
2019-04-29T05:41:05.761Z,101221.83
2019-04-29T05:43:46.432Z,101230.14
2019-04-29T05:46:30.952Z,101232.72
2019-04-29T05:49:02.399Z,101233.93
2019-04-29T05:51:35.822Z,101235.95
2019-04-29T05:54:05.593Z,101233.09
2019-04-29T05:56:34.307Z,101232.45
2019-04-29T05:59:02.931Z,101240.34
2019-04-29T06:01:31.732Z,101239.63
2019-04-29T06:04:00.367Z,101233.23
2019-04-29T06:06:29.026Z,101238.69
2019-04-29T06:08:57.713Z,101242.05
2019-04-29T06:11:26.378Z,101244.12
2019-04-29T06:13:55.161Z,101241.62
2019-04-29T06:16:23.891Z,101244.94
2019-04-29T06:18:59.367Z,101245.50
2019-04-29T06:21:22.894Z,101250.90
2019-04-29T06:23:54.457Z,101252.39
2019-04-29T06:26:21.976Z,101255.77
2019-04-29T06:28:50.627Z,101253.38
2019-04-29T06:31:19.353Z,101254.63
2019-04-29T06:33:47.997Z,101261.77
2019-04-29T06:36:16.730Z,101259.67
2019-04-29T06:38:45.346Z,101262.61
2019-04-29T06:41:13.987Z,101249.63
2019-04-29T06:43:42.726Z,101251.24
2019-04-29T06:46:11.434Z,101244.16
2019-04-29T06:48:40.132Z,101247.95
2019-04-29T06:51:08.753Z,101253.56
2019-04-29T06:53:37.398Z,101252.05
2019-04-29T06:56:09.057Z,101256.97
2019-04-29T06:58:38.064Z,101256.25
2019-04-29T07:01:06.821Z,101256.23
2019-04-29T07:03:35.449Z,101256.13
2019-04-29T07:06:04.068Z,101250.63
2019-04-29T07:08:32.772Z,101249.44
2019-04-29T07:11:02.977Z,101248.61
2019-04-29T07:13:31.675Z,101243.37
2019-04-29T07:16:00.377Z,101247.92
2019-04-29T07:18:28.995Z,101246.95
2019-04-29T07:20:57.596Z,101247.77
2019-04-29T07:23:26.257Z,101249.09
2019-04-29T07:25:55.108Z,101253.63
2019-04-29T07:28:23.714Z,101248.95
2019-04-29T07:31:01.540Z,101249.27
2019-04-29T07:33:24.501Z,101245.95
2019-04-29T07:35:53.202Z,101239.22
2019-04-29T07:38:21.835Z,101240.52
2019-04-29T07:40:50.609Z,101241.84
2019-04-29T07:43:19.234Z,101244.45
2019-04-29T07:46:05.626Z,101238.08
2019-04-29T07:48:36.837Z,101242.97
2019-04-29T07:51:05.937Z,101235.16
2019-04-29T07:53:44.546Z,101232.75
2019-04-29T07:56:06.354Z,101239.69
2019-04-29T07:58:35.524Z,101234.18
2019-04-29T08:01:04.223Z,101239.09
2019-04-29T08:03:32.846Z,101241.27
2019-04-29T08:06:01.898Z,101236.86
2019-04-29T08:08:31.127Z,101231.34
2019-04-29T08:10:59.750Z,101233.78
2019-04-29T08:13:29.228Z,101232.34
2019-04-29T08:15:57.857Z,101230.00
2019-04-29T08:18:26.482Z,101231.66
2019-04-29T08:20:55.188Z,101224.25
2019-04-29T08:23:23.787Z,101224.84
2019-04-29T08:25:52.480Z,101222.82
2019-04-29T08:28:21.199Z,101226.61
2019-04-29T08:30:49.815Z,101223.12
2019-04-29T08:33:19.561Z,101216.25
2019-04-29T08:35:48.169Z,101215.70
2019-04-29T08:38:16.780Z,101212.83
2019-04-29T08:40:49.997Z,101209.21
2019-04-29T08:43:24.312Z,101215.53
2019-04-29T08:46:05.885Z,101210.64
2019-04-29T08:48:34.509Z,101207.31
2019-04-29T08:51:03.181Z,101207.82
2019-04-29T08:53:31.842Z,101207.65
2019-04-29T08:56:00.448Z,101206.42
2019-04-29T08:58:29.054Z,101213.21
2019-04-29T09:00:57.846Z,101205.24
2019-04-29T09:03:39.708Z,101207.84
2019-04-29T09:06:05.234Z,101207.94
2019-04-29T09:08:28.935Z,101206.34
2019-04-29T09:10:57.829Z,101204.67
2019-04-29T09:13:26.440Z,101202.89
2019-04-29T09:15:55.060Z,101194.11
2019-04-29T09:18:23.656Z,101194.32
2019-04-29T09:20:52.286Z,101198.18
2019-04-29T09:23:24.162Z,101194.42
2019-04-29T09:26:10.066Z,101194.25
2019-04-29T09:28:38.753Z,101198.16
2019-04-29T09:31:07.434Z,101200.21
2019-04-29T09:33:36.043Z,101197.49
2019-04-29T09:36:04.727Z,101191.38
2019-04-29T09:38:36.943Z,101187.56
2019-04-29T09:41:14.468Z,101187.11
2019-04-29T09:43:50.227Z,101190.84
2019-04-29T09:46:25.220Z,101187.14
2019-04-29T09:48:53.844Z,101184.84
2019-04-29T09:51:27.622Z,101188.32
2019-04-29T09:53:52.916Z,101184.32
2019-04-29T09:56:21.673Z,101180.14
2019-04-29T09:58:52.767Z,101177.55
2019-04-29T10:01:43.225Z,101174.11
2019-04-29T10:04:29.481Z,101172.67
2019-04-29T10:06:58.634Z,101169.66
2019-04-29T10:09:28.107Z,101166.66
2019-04-29T10:11:56.734Z,101177.02
2019-04-29T10:14:25.345Z,101176.61
2019-04-29T10:17:15.436Z,101163.83
2019-04-29T10:19:49.572Z,101166.19
2019-04-29T10:22:18.255Z,101162.98
2019-04-29T10:24:47.011Z,101160.91
2019-04-29T10:27:15.649Z,101157.51
2019-04-29T10:29:46.630Z,101154.09
2019-04-29T10:32:15.257Z,101149.70
2019-04-29T10:34:43.948Z,101147.91
2019-04-29T10:37:12.653Z,101151.87
2019-04-29T10:39:49.415Z,101150.32
2019-04-29T10:42:24.363Z,101144.50
2019-04-29T10:45:01.505Z,101146.13
2019-04-29T10:47:45.260Z,101138.11
2019-04-29T10:50:17.998Z,101138.11
2019-04-29T10:52:46.650Z,101139.78
2019-04-29T10:55:15.805Z,101130.94
2019-04-29T10:57:44.888Z,101131.33
2019-04-29T11:00:25.180Z,101124.67
2019-04-29T11:02:53.977Z,101124.09
2019-04-29T11:05:33.063Z,101120.91
2019-04-29T11:08:33.854Z,101117.69
2019-04-29T11:11:03.586Z,101112.00
2019-04-29T11:13:32.231Z,101110.53
2019-04-29T11:16:00.920Z,101102.48
2019-04-29T11:18:29.722Z,101107.15
2019-04-29T11:20:58.377Z,101100.05
2019-04-29T11:23:44.867Z,101092.70
2019-04-29T11:26:34.484Z,101089.38
2019-04-29T11:29:05.481Z,101084.24
2019-04-29T11:31:35.132Z,101083.16
2019-04-29T11:34:34.680Z,101082.20
2019-04-29T11:37:03.463Z,101072.69
2019-04-29T11:39:32.077Z,101068.08
2019-04-29T11:42:01.620Z,101063.07
2019-04-29T11:44:31.950Z,101062.02
2019-04-29T11:47:00.819Z,101048.95
2019-04-29T11:49:36.948Z,101054.41
2019-04-29T11:52:09.627Z,101048.56
2019-04-29T11:54:36.061Z,101039.72
2019-04-29T11:57:06.376Z,101038.67
2019-04-29T11:59:51.852Z,101032.47
2019-04-29T12:02:45.388Z,101042.08
2019-04-29T12:05:27.490Z,101031.20
2019-04-29T12:07:56.274Z,101038.28
2019-04-29T12:10:25.082Z,101026.20
2019-04-29T12:12:53.680Z,101028.96
2019-04-29T12:15:45.123Z,101025.38
2019-04-29T12:18:18.289Z,101022.52
2019-04-29T12:21:02.591Z,101017.38
2019-04-29T12:23:31.224Z,101015.90
2019-04-29T12:26:03.070Z,101008.81
2019-04-29T12:28:30.318Z,101009.41
2019-04-29T12:31:05.676Z,101003.73
2019-04-29T12:33:38.611Z,101006.64
2019-04-29T12:36:09.837Z,101003.27
2019-04-29T12:38:56.246Z,101003.53
2019-04-29T12:41:48.522Z,101001.89
2019-04-29T12:44:19.291Z,100999.28
2019-04-29T12:46:51.980Z,100995.77
2019-04-29T12:49:20.600Z,100995.27
2019-04-29T12:51:49.302Z,100988.42
2019-04-29T12:54:17.934Z,100986.84
2019-04-29T12:56:47.949Z,100981.55
2019-04-29T12:59:16.962Z,100985.89
2019-04-29T13:02:14.973Z,100980.81
2019-04-29T13:05:11.471Z,100987.72
2019-04-29T13:07:47.885Z,100982.36
2019-04-29T13:10:24.556Z,100972.80
2019-04-29T13:12:53.283Z,100964.55
2019-04-29T13:15:33.358Z,100967.94
2019-04-29T13:18:12.821Z,100963.92
2019-04-29T13:20:37.018Z,100960.52
2019-04-29T13:23:17.536Z,100953.83
2019-04-29T13:25:36.130Z,100952.64
2019-04-29T13:28:05.245Z,100950.65
2019-04-29T13:30:33.925Z,100948.47
2019-04-29T13:33:06.308Z,100949.52
2019-04-29T13:35:33.134Z,100947.73
2019-04-29T13:38:01.738Z,100939.02
2019-04-29T13:40:33.078Z,100934.59
2019-04-29T13:43:00.752Z,100939.46
2019-04-29T13:45:37.041Z,100945.32
2019-04-29T13:48:23.374Z,100941.81
2019-04-29T13:51:05.112Z,100936.73
2019-04-29T13:53:33.970Z,100932.59
2019-04-29T13:56:11.649Z,100929.38
2019-04-29T13:58:33.076Z,100932.33
2019-04-29T14:01:22.108Z,100930.78
2019-04-29T14:03:49.463Z,100935.54
2019-04-29T14:06:18.696Z,100932.08
2019-04-29T14:08:48.220Z,100933.50
2019-04-29T14:11:16.868Z,100930.31
2019-04-29T14:13:48.256Z,100924.19
2019-04-29T14:16:19.119Z,100920.33
2019-04-29T14:18:48.254Z,100924.21
2019-04-29T14:21:16.773Z,100920.69
2019-04-29T14:23:45.379Z,100915.08
2019-04-29T14:26:14.015Z,100916.52
2019-04-29T14:28:42.821Z,100912.66
2019-04-29T14:31:11.465Z,100911.53
2019-04-29T14:33:48.526Z,100904.25
2019-04-29T14:36:19.909Z,100895.66
2019-04-29T14:38:47.469Z,100894.42
2019-04-29T14:41:19.177Z,100894.61
2019-04-29T14:43:55.138Z,100893.93
2019-04-29T14:47:02.116Z,100892.58
2019-04-29T14:49:39.735Z,100889.38
2019-04-29T14:52:08.143Z,100888.83
2019-04-29T14:54:41.805Z,100893.30
2019-04-29T14:57:09.186Z,100897.67
2019-04-29T14:59:38.272Z,100900.14
2019-04-29T15:02:16.055Z,100901.45
2019-04-29T15:04:43.746Z,100900.20
2019-04-29T15:07:12.476Z,100900.31
2019-04-29T15:09:58.242Z,100899.92
2019-04-29T15:13:18.280Z,100900.22
2019-04-29T15:16:05.187Z,100904.77
2019-04-29T15:18:49.835Z,100908.61
2019-04-29T15:21:31.624Z,100910.65
2019-04-29T15:23:51.424Z,100909.73
2019-04-29T15:26:20.474Z,100914.80
2019-04-29T15:28:52.076Z,100913.28
2019-04-29T15:31:24.579Z,100914.19
2019-04-29T15:33:53.390Z,100907.78
2019-04-29T15:36:22.219Z,100910.77
2019-04-29T15:39:08.205Z,100909.91
2019-04-29T15:41:29.640Z,100910.14
2019-04-29T15:44:05.877Z,100909.69
2019-04-29T15:46:22.014Z,100916.92
2019-04-29T15:48:50.729Z,100917.64
2019-04-29T15:51:19.359Z,100914.11
2019-04-29T15:53:47.983Z,100917.64
2019-04-29T15:56:28.434Z,100917.08
2019-04-29T15:58:47.389Z,100910.91
2019-04-29T16:01:18.350Z,100915.97
2019-04-29T16:03:49.861Z,100915.50
2019-04-29T16:06:28.963Z,100923.38
2019-04-29T16:09:14.974Z,100922.92
2019-04-29T16:12:13.972Z,100929.22
2019-04-29T16:14:38.106Z,100926.78
2019-04-29T16:17:06.721Z,100923.34
2019-04-29T16:19:35.356Z,100930.27
2019-04-29T16:22:04.137Z,100925.91
2019-04-29T16:24:38.430Z,100930.53
2019-04-29T16:27:08.354Z,100937.72
2019-04-29T16:29:33.766Z,100945.50
2019-04-29T16:32:04.876Z,100951.84
2019-04-29T16:34:37.390Z,100948.20
2019-04-29T16:37:03.110Z,100943.83
2019-04-29T16:39:31.889Z,100944.01
2019-04-29T16:42:31.612Z,100940.06
2019-04-29T16:45:05.996Z,100942.66
2019-04-29T16:47:31.112Z,100942.02
2019-04-29T16:50:04.577Z,100946.09
2019-04-29T16:52:32.784Z,100944.44
2019-04-29T16:55:10.964Z,100935.26
2019-04-29T16:57:44.892Z,100940.05
2019-04-29T17:00:16.916Z,100938.52
2019-04-29T17:02:46.341Z,100944.52
2019-04-29T17:05:16.710Z,100937.89
2019-04-29T17:07:48.842Z,100938.81
2019-04-29T17:10:31.619Z,100943.16
2019-04-29T17:13:16.705Z,100928.50
2019-04-29T17:15:52.277Z,100930.22
2019-04-29T17:18:17.598Z,100921.78
2019-04-29T17:20:46.232Z,100922.42
2019-04-29T17:23:14.865Z,100920.48
2019-04-29T17:25:43.615Z,100920.52
2019-04-29T17:28:29.930Z,100918.37
2019-04-29T17:31:20.960Z,100912.66
2019-04-29T17:34:12.351Z,100916.12
2019-04-29T17:36:41.276Z,100922.67
2019-04-29T17:39:10.056Z,100914.45
2019-04-29T17:41:39.100Z,100909.88
2019-04-29T17:47:54.976Z,100906.97
2019-04-29T17:50:31.058Z,100923.36
2019-04-29T17:53:01.486Z,100922.02
2019-04-29T17:55:50.211Z,100930.81
2019-04-29T17:58:51.600Z,100916.91
2019-04-29T18:01:36.801Z,100913.59
2019-04-29T18:04:36.130Z,100906.33
2019-04-29T18:07:45.475Z,100918.14
2019-04-29T18:10:29.486Z,100927.99
2019-04-29T18:12:59.740Z,100928.94
2019-04-29T18:15:42.443Z,100917.64
2019-04-29T18:18:26.364Z,100914.13
2019-04-29T18:21:29.316Z,100899.39
2019-04-29T18:24:16.001Z,100913.86
2019-04-29T18:27:01.362Z,100913.81
2019-04-29T18:29:47.605Z,100918.86
2019-04-29T18:32:35.519Z,100921.65
2019-04-29T18:35:25.592Z,100913.47
2019-04-29T18:38:26.404Z,100914.95
2019-04-29T18:41:20.943Z,100906.59
2019-04-29T18:44:03.256Z,100900.63
2019-04-29T18:46:57.216Z,100910.17
2019-04-29T18:49:25.943Z,100902.58
2019-04-29T18:51:57.989Z,100901.08
2019-04-29T18:54:28.403Z,100906.69
2019-04-29T18:56:57.852Z,100915.36
2019-04-29T18:59:33.462Z,100909.42
2019-04-29T19:02:09.236Z,100914.00
2019-04-29T19:04:53.438Z,100914.28
2019-04-29T19:07:26.520Z,100915.16
2019-04-29T19:09:56.007Z,100912.90
2019-04-29T19:12:37.930Z,100923.20
2019-04-29T19:15:11.403Z,100931.68
2019-04-29T19:17:40.048Z,100927.22
2019-04-29T19:20:12.945Z,100917.84
2019-04-29T19:22:47.306Z,100925.08
2019-04-29T19:25:19.582Z,100927.03
2019-04-29T19:27:51.396Z,100936.02
2019-04-29T19:30:39.075Z,100923.98
2019-04-29T19:33:25.197Z,100931.20
2019-04-29T19:36:21.844Z,100936.00
2019-04-29T19:38:52.554Z,100933.20
2019-04-29T19:41:25.632Z,100942.16
2019-04-29T19:43:56.537Z,100959.32
2019-04-29T19:46:36.988Z,100958.80
2019-04-29T19:49:05.351Z,100957.98
2019-04-29T19:51:32.646Z,100956.33
2019-04-29T19:57:37.934Z,100948.23
2019-04-29T20:00:23.315Z,100945.91
2019-04-29T20:02:51.202Z,100944.70
2019-04-29T20:05:41.047Z,100938.89
2019-04-29T20:08:41.185Z,100950.62
2019-04-29T20:10:53.370Z,100954.92
2019-04-29T20:13:40.643Z,100958.16
2019-04-29T20:16:42.976Z,100957.32
2019-04-29T20:19:19.739Z,100958.92
2019-04-29T20:21:46.604Z,100971.23
2019-04-29T20:24:23.407Z,100967.04
2019-04-29T20:26:55.244Z,100974.91
2019-04-29T20:29:33.485Z,100965.11
2019-04-29T20:32:00.373Z,100962.36
2019-04-29T20:34:30.721Z,100964.17
2019-04-29T20:37:05.860Z,100964.66
2019-04-29T20:39:35.718Z,100964.42
2019-04-29T20:42:11.593Z,100967.14
2019-04-29T20:44:45.760Z,100969.66
2019-04-29T20:47:22.708Z,100974.05
2019-04-29T20:49:49.552Z,100969.06
2019-04-29T20:52:36.583Z,100969.78
2019-04-29T20:55:09.191Z,100966.06
2019-04-29T20:57:38.265Z,100963.70
2019-04-29T21:00:09.513Z,100973.86
2019-04-29T21:02:46.376Z,100967.14
2019-04-29T21:05:23.057Z,100967.42
2019-04-29T21:08:02.531Z,100960.02
2019-04-29T21:10:26.502Z,100965.96
2019-04-29T21:13:16.501Z,100962.34
2019-04-29T21:15:59.419Z,100969.73
2019-04-29T21:18:31.199Z,100964.62
2019-04-29T21:21:04.595Z,100964.55
2019-04-29T21:23:35.407Z,100964.31
2019-04-29T21:26:15.870Z,100970.11
2019-04-29T21:28:47.071Z,100966.52
2019-04-29T21:31:20.887Z,100968.90
2019-04-29T21:33:57.128Z,100965.70
2019-04-29T21:36:36.734Z,100969.52
2019-04-29T21:39:36.521Z,100966.00
2019-04-29T21:42:21.892Z,100970.86
2019-04-29T21:44:58.666Z,100965.56
2019-04-29T21:47:32.020Z,100973.79
2019-04-29T21:50:00.660Z,100971.92
2019-04-29T21:52:31.328Z,100974.83
2019-04-29T21:55:02.037Z,100978.84
2019-04-29T21:57:32.802Z,100978.46
2019-04-29T22:00:06.570Z,100979.41
2019-04-29T22:02:46.614Z,100975.64
2019-04-29T22:05:18.245Z,100978.05
2019-04-29T22:07:48.524Z,100966.13
2019-04-29T22:10:27.469Z,100966.32
2019-04-29T22:12:58.445Z,100974.72
2019-04-29T22:15:32.462Z,100973.94
2019-04-29T22:18:01.529Z,100974.72
2019-04-29T22:20:29.528Z,100972.80
2019-04-29T22:22:58.449Z,100973.46
2019-04-29T22:25:31.147Z,100971.56
2019-04-29T22:28:02.033Z,100973.69
2019-04-29T22:30:31.588Z,100981.17
2019-04-29T22:33:05.115Z,100979.97
2019-04-29T22:35:46.457Z,100983.94
2019-04-29T22:38:21.807Z,100985.14
2019-04-29T22:40:52.488Z,100976.77
2019-04-29T22:43:44.551Z,100987.17
2019-04-29T22:46:13.297Z,100985.64
2019-04-29T22:48:45.443Z,100981.70
2019-04-29T22:51:15.118Z,100981.42
2019-04-29T22:53:46.746Z,100973.58
2019-04-29T22:56:14.131Z,100971.99
2019-04-29T22:58:43.956Z,100967.44
2019-04-29T23:01:13.701Z,100969.81
2019-04-29T23:03:42.376Z,100972.23
2019-04-29T23:06:11.015Z,100958.34
2019-04-29T23:08:39.634Z,100963.14
2019-04-29T23:11:08.284Z,100966.82
2019-04-29T23:13:38.050Z,100965.82
2019-04-29T23:16:06.989Z,100967.86
2019-04-29T23:18:42.123Z,100965.59
2019-04-29T23:21:23.618Z,100966.49
2019-04-29T23:24:00.127Z,100962.33
2019-04-29T23:26:28.749Z,100963.36
2019-04-29T23:28:59.494Z,100969.95
2019-04-29T23:31:28.338Z,100961.86
2019-04-29T23:33:57.034Z,100964.45
2019-04-29T23:36:25.663Z,100968.69
2019-04-29T23:38:54.816Z,100963.34
2019-04-29T23:41:27.626Z,100963.53
2019-04-29T23:43:55.605Z,100973.13
2019-04-29T23:46:24.403Z,100971.31
2019-04-29T23:48:56.538Z,100971.81
2019-04-29T23:51:27.426Z,100969.05
2019-04-29T23:53:56.721Z,100967.66
2019-04-29T23:56:25.872Z,100968.86
2019-04-29T23:58:59.955Z,100971.06
